sensor_id;sensor_type;location;lat;lon;timestamp;temperature;humidity
54202;DHT22;40108;53.152;5.844;2023-03-19T00:00:09;10.50;93.80
54202;DHT22;40108;53.152;5.844;2023-03-19T00:02:36;10.50;93.70
54202;DHT22;40108;53.152;5.844;2023-03-19T00:05:03;10.50;93.70
54202;DHT22;40108;53.152;5.844;2023-03-19T00:07:29;10.50;93.70
54202;DHT22;40108;53.152;5.844;2023-03-19T00:09:54;10.50;93.60
54202;DHT22;40108;53.152;5.844;2023-03-19T00:12:21;10.40;93.60
54202;DHT22;40108;53.152;5.844;2023-03-19T00:14:47;10.40;93.60
54202;DHT22;40108;53.152;5.844;2023-03-19T00:17:13;10.40;93.70
54202;DHT22;40108;53.152;5.844;2023-03-19T00:19:39;10.40;93.80
54202;DHT22;40108;53.152;5.844;2023-03-19T00:22:05;10.40;94.00
54202;DHT22;40108;53.152;5.844;2023-03-19T00:24:31;10.40;94.10
54202;DHT22;40108;53.152;5.844;2023-03-19T00:26:57;10.40;94.20
54202;DHT22;40108;53.152;5.844;2023-03-19T00:29:23;10.30;94.30
54202;DHT22;40108;53.152;5.844;2023-03-19T00:31:49;10.30;94.40
54202;DHT22;40108;53.152;5.844;2023-03-19T00:34:14;10.30;94.60
54202;DHT22;40108;53.152;5.844;2023-03-19T00:36:43;10.30;94.70
54202;DHT22;40108;53.152;5.844;2023-03-19T00:39:09;10.30;94.80
54202;DHT22;40108;53.152;5.844;2023-03-19T00:41:35;10.20;94.80
54202;DHT22;40108;53.152;5.844;2023-03-19T00:44:01;10.20;94.80
54202;DHT22;40108;53.152;5.844;2023-03-19T00:46:28;10.20;94.80
54202;DHT22;40108;53.152;5.844;2023-03-19T00:48:54;10.20;94.80
54202;DHT22;40108;53.152;5.844;2023-03-19T00:51:21;10.20;94.90
54202;DHT22;40108;53.152;5.844;2023-03-19T00:53:47;10.20;94.90
54202;DHT22;40108;53.152;5.844;2023-03-19T00:56:14;10.20;94.90
54202;DHT22;40108;53.152;5.844;2023-03-19T00:58:43;10.20;95.00
54202;DHT22;40108;53.152;5.844;2023-03-19T01:01:10;10.10;95.00
54202;DHT22;40108;53.152;5.844;2023-03-19T01:03:37;10.20;95.00
54202;DHT22;40108;53.152;5.844;2023-03-19T01:06:03;10.20;95.00
54202;DHT22;40108;53.152;5.844;2023-03-19T01:08:29;10.20;95.10
54202;DHT22;40108;53.152;5.844;2023-03-19T01:10:55;10.10;95.10
54202;DHT22;40108;53.152;5.844;2023-03-19T01:13:21;10.10;95.10
54202;DHT22;40108;53.152;5.844;2023-03-19T01:15:51;10.10;95.10
54202;DHT22;40108;53.152;5.844;2023-03-19T01:18:17;10.10;95.10
54202;DHT22;40108;53.152;5.844;2023-03-19T01:20:43;10.10;95.10
54202;DHT22;40108;53.152;5.844;2023-03-19T01:23:09;10.10;95.10
54202;DHT22;40108;53.152;5.844;2023-03-19T01:25:35;10.10;95.10
54202;DHT22;40108;53.152;5.844;2023-03-19T01:28:01;10.10;95.00
54202;DHT22;40108;53.152;5.844;2023-03-19T01:30:27;10.20;95.00
54202;DHT22;40108;53.152;5.844;2023-03-19T01:32:53;10.20;94.90
54202;DHT22;40108;53.152;5.844;2023-03-19T01:35:18;10.10;94.90
54202;DHT22;40108;53.152;5.844;2023-03-19T01:37:45;10.20;95.00
54202;DHT22;40108;53.152;5.844;2023-03-19T01:40:12;10.20;95.10
54202;DHT22;40108;53.152;5.844;2023-03-19T01:43:11;10.10;95.20
54202;DHT22;40108;53.152;5.844;2023-03-19T01:45:39;10.10;95.30
54202;DHT22;40108;53.152;5.844;2023-03-19T01:48:06;10.20;95.30
54202;DHT22;40108;53.152;5.844;2023-03-19T01:50:44;10.10;95.40
54202;DHT22;40108;53.152;5.844;2023-03-19T01:53:12;10.10;95.50
54202;DHT22;40108;53.152;5.844;2023-03-19T01:55:39;10.20;95.50
54202;DHT22;40108;53.152;5.844;2023-03-19T01:58:06;10.20;95.60
54202;DHT22;40108;53.152;5.844;2023-03-19T02:00:34;10.20;95.60
54202;DHT22;40108;53.152;5.844;2023-03-19T02:03:02;10.20;95.60
54202;DHT22;40108;53.152;5.844;2023-03-19T02:05:29;10.20;95.60
54202;DHT22;40108;53.152;5.844;2023-03-19T02:07:58;10.20;95.70
54202;DHT22;40108;53.152;5.844;2023-03-19T02:10:25;10.20;95.70
54202;DHT22;40108;53.152;5.844;2023-03-19T02:12:51;10.20;95.70
54202;DHT22;40108;53.152;5.844;2023-03-19T02:15:17;10.20;95.70
54202;DHT22;40108;53.152;5.844;2023-03-19T02:17:43;10.20;95.70
54202;DHT22;40108;53.152;5.844;2023-03-19T02:23:19;10.20;95.80
54202;DHT22;40108;53.152;5.844;2023-03-19T02:28:15;10.20;95.90
54202;DHT22;40108;53.152;5.844;2023-03-19T02:30:44;10.20;96.00
54202;DHT22;40108;53.152;5.844;2023-03-19T02:33:14;10.20;96.10
54202;DHT22;40108;53.152;5.844;2023-03-19T02:35:42;10.10;96.20
54202;DHT22;40108;53.152;5.844;2023-03-19T02:38:10;10.10;96.20
54202;DHT22;40108;53.152;5.844;2023-03-19T02:40:40;10.10;96.30
54202;DHT22;40108;53.152;5.844;2023-03-19T02:43:08;10.10;96.40
54202;DHT22;40108;53.152;5.844;2023-03-19T02:45:34;10.10;96.40
54202;DHT22;40108;53.152;5.844;2023-03-19T02:47:59;10.10;96.50
54202;DHT22;40108;53.152;5.844;2023-03-19T02:50:25;10.10;96.50
54202;DHT22;40108;53.152;5.844;2023-03-19T02:52:52;10.10;96.50
54202;DHT22;40108;53.152;5.844;2023-03-19T02:55:17;10.10;96.50
54202;DHT22;40108;53.152;5.844;2023-03-19T02:57:44;10.10;96.60
54202;DHT22;40108;53.152;5.844;2023-03-19T03:00:11;10.10;96.70
54202;DHT22;40108;53.152;5.844;2023-03-19T03:02:37;10.10;96.70
54202;DHT22;40108;53.152;5.844;2023-03-19T03:05:04;10.10;96.80
54202;DHT22;40108;53.152;5.844;2023-03-19T03:07:31;10.10;96.80
54202;DHT22;40108;53.152;5.844;2023-03-19T03:09:57;10.10;96.80
54202;DHT22;40108;53.152;5.844;2023-03-19T03:12:23;10.10;96.80
54202;DHT22;40108;53.152;5.844;2023-03-19T03:14:49;10.10;96.70
54202;DHT22;40108;53.152;5.844;2023-03-19T03:17:15;10.10;96.80
54202;DHT22;40108;53.152;5.844;2023-03-19T03:19:40;10.10;96.80
54202;DHT22;40108;53.152;5.844;2023-03-19T03:22:06;10.10;96.80
54202;DHT22;40108;53.152;5.844;2023-03-19T03:24:32;10.10;96.80
54202;DHT22;40108;53.152;5.844;2023-03-19T03:26:58;10.10;96.80
54202;DHT22;40108;53.152;5.844;2023-03-19T03:29:24;10.10;96.80
54202;DHT22;40108;53.152;5.844;2023-03-19T03:31:49;10.10;96.80
54202;DHT22;40108;53.152;5.844;2023-03-19T03:34:16;10.10;96.80
54202;DHT22;40108;53.152;5.844;2023-03-19T03:36:42;10.10;96.80
54202;DHT22;40108;53.152;5.844;2023-03-19T03:39:08;10.00;96.80
54202;DHT22;40108;53.152;5.844;2023-03-19T03:41:33;10.00;96.70
54202;DHT22;40108;53.152;5.844;2023-03-19T03:43:59;10.00;96.70
54202;DHT22;40108;53.152;5.844;2023-03-19T03:46:25;10.00;96.80
54202;DHT22;40108;53.152;5.844;2023-03-19T03:48:51;9.90;96.80
54202;DHT22;40108;53.152;5.844;2023-03-19T03:51:19;9.90;96.70
54202;DHT22;40108;53.152;5.844;2023-03-19T03:53:46;10.00;96.80
54202;DHT22;40108;53.152;5.844;2023-03-19T03:56:12;9.90;96.80
54202;DHT22;40108;53.152;5.844;2023-03-19T03:58:38;9.90;96.70
54202;DHT22;40108;53.152;5.844;2023-03-19T04:01:04;9.90;96.80
54202;DHT22;40108;53.152;5.844;2023-03-19T04:03:31;9.90;96.70
54202;DHT22;40108;53.152;5.844;2023-03-19T04:05:57;9.90;96.80
54202;DHT22;40108;53.152;5.844;2023-03-19T04:08:22;9.80;96.80
54202;DHT22;40108;53.152;5.844;2023-03-19T04:10:49;9.80;96.80
54202;DHT22;40108;53.152;5.844;2023-03-19T04:13:15;9.80;96.80
54202;DHT22;40108;53.152;5.844;2023-03-19T04:15:42;9.80;96.70
54202;DHT22;40108;53.152;5.844;2023-03-19T04:18:08;9.80;96.70
54202;DHT22;40108;53.152;5.844;2023-03-19T04:20:33;9.80;96.80
54202;DHT22;40108;53.152;5.844;2023-03-19T04:23:00;9.70;96.70
54202;DHT22;40108;53.152;5.844;2023-03-19T04:25:26;9.70;96.70
54202;DHT22;40108;53.152;5.844;2023-03-19T04:27:52;9.60;96.70
54202;DHT22;40108;53.152;5.844;2023-03-19T04:30:18;9.60;96.70
54202;DHT22;40108;53.152;5.844;2023-03-19T04:32:44;9.50;96.60
54202;DHT22;40108;53.152;5.844;2023-03-19T04:35:10;9.40;96.60
54202;DHT22;40108;53.152;5.844;2023-03-19T04:37:36;9.40;96.60
54202;DHT22;40108;53.152;5.844;2023-03-19T04:40:03;9.30;96.60
54202;DHT22;40108;53.152;5.844;2023-03-19T04:42:28;9.20;96.60
54202;DHT22;40108;53.152;5.844;2023-03-19T04:44:54;9.20;96.60
54202;DHT22;40108;53.152;5.844;2023-03-19T04:47:22;9.10;96.60
54202;DHT22;40108;53.152;5.844;2023-03-19T04:49:48;9.00;96.60
54202;DHT22;40108;53.152;5.844;2023-03-19T04:52:13;8.90;96.60
54202;DHT22;40108;53.152;5.844;2023-03-19T04:54:39;8.80;96.60
54202;DHT22;40108;53.152;5.844;2023-03-19T04:57:05;8.80;96.60
54202;DHT22;40108;53.152;5.844;2023-03-19T04:59:31;8.70;96.60
54202;DHT22;40108;53.152;5.844;2023-03-19T05:01:57;8.70;96.60
54202;DHT22;40108;53.152;5.844;2023-03-19T05:04:22;8.60;96.60
54202;DHT22;40108;53.152;5.844;2023-03-19T05:06:49;8.50;96.60
54202;DHT22;40108;53.152;5.844;2023-03-19T05:09:15;8.50;96.70
54202;DHT22;40108;53.152;5.844;2023-03-19T05:11:41;8.40;96.70
54202;DHT22;40108;53.152;5.844;2023-03-19T05:14:06;8.40;96.80
54202;DHT22;40108;53.152;5.844;2023-03-19T05:16:33;8.40;96.80
54202;DHT22;40108;53.152;5.844;2023-03-19T05:19:00;8.40;96.80
54202;DHT22;40108;53.152;5.844;2023-03-19T05:21:25;8.30;96.90
54202;DHT22;40108;53.152;5.844;2023-03-19T05:23:52;8.30;96.90
54202;DHT22;40108;53.152;5.844;2023-03-19T05:26:19;8.20;96.90
54202;DHT22;40108;53.152;5.844;2023-03-19T05:28:46;8.20;96.90
54202;DHT22;40108;53.152;5.844;2023-03-19T05:31:11;8.20;96.90
54202;DHT22;40108;53.152;5.844;2023-03-19T05:33:38;8.10;96.90
54202;DHT22;40108;53.152;5.844;2023-03-19T05:36:03;8.10;96.90
54202;DHT22;40108;53.152;5.844;2023-03-19T05:38:29;8.00;96.90
54202;DHT22;40108;53.152;5.844;2023-03-19T05:40:55;8.00;96.90
54202;DHT22;40108;53.152;5.844;2023-03-19T05:43:20;7.90;96.90
54202;DHT22;40108;53.152;5.844;2023-03-19T05:45:50;7.90;96.80
54202;DHT22;40108;53.152;5.844;2023-03-19T05:48:17;7.80;96.70
54202;DHT22;40108;53.152;5.844;2023-03-19T05:50:43;7.70;96.80
54202;DHT22;40108;53.152;5.844;2023-03-19T05:53:08;7.70;96.80
54202;DHT22;40108;53.152;5.844;2023-03-19T05:55:34;7.70;96.80
54202;DHT22;40108;53.152;5.844;2023-03-19T05:58:00;7.70;96.80
54202;DHT22;40108;53.152;5.844;2023-03-19T06:00:26;7.70;96.80
54202;DHT22;40108;53.152;5.844;2023-03-19T06:02:52;7.60;96.80
54202;DHT22;40108;53.152;5.844;2023-03-19T06:05:19;7.60;96.80
54202;DHT22;40108;53.152;5.844;2023-03-19T06:07:45;7.60;96.90
54202;DHT22;40108;53.152;5.844;2023-03-19T06:10:11;7.60;96.90
54202;DHT22;40108;53.152;5.844;2023-03-19T06:12:37;7.60;97.00
54202;DHT22;40108;53.152;5.844;2023-03-19T06:15:03;7.60;97.00
54202;DHT22;40108;53.152;5.844;2023-03-19T06:17:29;7.60;97.00
54202;DHT22;40108;53.152;5.844;2023-03-19T06:19:55;7.60;97.00
54202;DHT22;40108;53.152;5.844;2023-03-19T06:22:20;7.60;97.00
54202;DHT22;40108;53.152;5.844;2023-03-19T06:24:46;7.60;97.10
54202;DHT22;40108;53.152;5.844;2023-03-19T06:27:12;7.60;97.10
54202;DHT22;40108;53.152;5.844;2023-03-19T06:29:38;7.50;97.10
54202;DHT22;40108;53.152;5.844;2023-03-19T06:32:04;7.50;97.10
54202;DHT22;40108;53.152;5.844;2023-03-19T06:34:29;7.60;97.20
54202;DHT22;40108;53.152;5.844;2023-03-19T06:36:55;7.50;97.20
54202;DHT22;40108;53.152;5.844;2023-03-19T06:39:21;7.50;97.20
54202;DHT22;40108;53.152;5.844;2023-03-19T06:41:47;7.50;97.20
54202;DHT22;40108;53.152;5.844;2023-03-19T06:44:13;7.60;97.30
54202;DHT22;40108;53.152;5.844;2023-03-19T06:46:38;7.60;97.30
54202;DHT22;40108;53.152;5.844;2023-03-19T06:49:04;7.70;97.40
54202;DHT22;40108;53.152;5.844;2023-03-19T06:51:29;7.80;97.40
54202;DHT22;40108;53.152;5.844;2023-03-19T06:53:55;7.90;97.50
54202;DHT22;40108;53.152;5.844;2023-03-19T06:56:21;7.90;97.50
54202;DHT22;40108;53.152;5.844;2023-03-19T06:58:47;8.10;97.60
54202;DHT22;40108;53.152;5.844;2023-03-19T07:01:13;8.20;97.60
54202;DHT22;40108;53.152;5.844;2023-03-19T07:03:38;8.30;97.60
54202;DHT22;40108;53.152;5.844;2023-03-19T07:06:04;8.40;97.70
54202;DHT22;40108;53.152;5.844;2023-03-19T07:08:31;8.50;97.60
54202;DHT22;40108;53.152;5.844;2023-03-19T07:11:05;8.60;97.60
54202;DHT22;40108;53.152;5.844;2023-03-19T07:13:31;8.70;97.50
54202;DHT22;40108;53.152;5.844;2023-03-19T07:15:58;8.70;97.40
54202;DHT22;40108;53.152;5.844;2023-03-19T07:18:24;8.70;97.40
54202;DHT22;40108;53.152;5.844;2023-03-19T07:20:50;8.70;97.40
54202;DHT22;40108;53.152;5.844;2023-03-19T07:23:17;8.70;97.40
54202;DHT22;40108;53.152;5.844;2023-03-19T07:25:43;8.80;97.40
54202;DHT22;40108;53.152;5.844;2023-03-19T07:28:09;8.80;97.40
54202;DHT22;40108;53.152;5.844;2023-03-19T07:30:35;8.80;97.30
54202;DHT22;40108;53.152;5.844;2023-03-19T07:33:03;8.70;97.30
54202;DHT22;40108;53.152;5.844;2023-03-19T07:35:28;8.80;97.20
54202;DHT22;40108;53.152;5.844;2023-03-19T07:37:55;8.70;97.20
54202;DHT22;40108;53.152;5.844;2023-03-19T07:40:20;8.70;97.20
54202;DHT22;40108;53.152;5.844;2023-03-19T07:42:46;8.70;97.10
54202;DHT22;40108;53.152;5.844;2023-03-19T07:45:12;8.70;97.10
54202;DHT22;40108;53.152;5.844;2023-03-19T07:47:37;8.70;97.10
54202;DHT22;40108;53.152;5.844;2023-03-19T07:50:05;8.70;97.00
54202;DHT22;40108;53.152;5.844;2023-03-19T07:52:30;8.70;97.00
54202;DHT22;40108;53.152;5.844;2023-03-19T07:54:56;8.70;97.00
54202;DHT22;40108;53.152;5.844;2023-03-19T07:57:22;8.60;97.00
54202;DHT22;40108;53.152;5.844;2023-03-19T07:59:50;8.70;97.00
54202;DHT22;40108;53.152;5.844;2023-03-19T08:02:16;8.70;97.00
54202;DHT22;40108;53.152;5.844;2023-03-19T08:04:42;8.70;97.00
54202;DHT22;40108;53.152;5.844;2023-03-19T08:07:08;8.70;97.00
54202;DHT22;40108;53.152;5.844;2023-03-19T08:09:37;8.70;97.00
54202;DHT22;40108;53.152;5.844;2023-03-19T08:12:05;8.70;96.90
54202;DHT22;40108;53.152;5.844;2023-03-19T08:14:32;8.70;96.90
54202;DHT22;40108;53.152;5.844;2023-03-19T08:16:58;8.70;96.90
54202;DHT22;40108;53.152;5.844;2023-03-19T08:19:24;8.70;96.90
54202;DHT22;40108;53.152;5.844;2023-03-19T08:21:49;8.70;96.90
54202;DHT22;40108;53.152;5.844;2023-03-19T08:24:15;8.70;96.90
54202;DHT22;40108;53.152;5.844;2023-03-19T08:26:42;8.70;96.80
54202;DHT22;40108;53.152;5.844;2023-03-19T08:29:07;8.60;96.80
54202;DHT22;40108;53.152;5.844;2023-03-19T08:31:34;8.60;96.80
54202;DHT22;40108;53.152;5.844;2023-03-19T08:33:59;8.50;96.80
54202;DHT22;40108;53.152;5.844;2023-03-19T08:36:28;8.60;96.80
54202;DHT22;40108;53.152;5.844;2023-03-19T08:38:54;8.50;96.80
54202;DHT22;40108;53.152;5.844;2023-03-19T08:41:21;8.40;96.70
54202;DHT22;40108;53.152;5.844;2023-03-19T08:43:46;8.40;96.80
54202;DHT22;40108;53.152;5.844;2023-03-19T08:46:12;8.30;96.70
54202;DHT22;40108;53.152;5.844;2023-03-19T08:48:38;8.30;96.80
54202;DHT22;40108;53.152;5.844;2023-03-19T08:51:04;8.30;96.70
54202;DHT22;40108;53.152;5.844;2023-03-19T08:53:31;8.20;96.70
54202;DHT22;40108;53.152;5.844;2023-03-19T08:55:59;8.20;96.80
54202;DHT22;40108;53.152;5.844;2023-03-19T08:58:26;8.20;96.80
54202;DHT22;40108;53.152;5.844;2023-03-19T09:00:52;8.20;96.90
54202;DHT22;40108;53.152;5.844;2023-03-19T09:03:19;8.20;96.90
54202;DHT22;40108;53.152;5.844;2023-03-19T09:05:46;8.20;96.90
54202;DHT22;40108;53.152;5.844;2023-03-19T09:08:12;8.10;97.00
54202;DHT22;40108;53.152;5.844;2023-03-19T09:10:38;8.20;97.00
54202;DHT22;40108;53.152;5.844;2023-03-19T09:13:04;8.20;97.10
54202;DHT22;40108;53.152;5.844;2023-03-19T09:15:30;8.30;97.10
54202;DHT22;40108;53.152;5.844;2023-03-19T09:17:56;8.30;97.20
54202;DHT22;40108;53.152;5.844;2023-03-19T09:20:21;8.40;97.10
54202;DHT22;40108;53.152;5.844;2023-03-19T09:22:47;8.40;97.20
54202;DHT22;40108;53.152;5.844;2023-03-19T09:25:13;8.40;97.10
54202;DHT22;40108;53.152;5.844;2023-03-19T09:27:39;8.50;97.10
54202;DHT22;40108;53.152;5.844;2023-03-19T09:30:05;8.60;97.10
54202;DHT22;40108;53.152;5.844;2023-03-19T09:32:34;8.50;97.10
54202;DHT22;40108;53.152;5.844;2023-03-19T09:35:00;8.60;97.10
54202;DHT22;40108;53.152;5.844;2023-03-19T09:37:26;8.60;97.00
54202;DHT22;40108;53.152;5.844;2023-03-19T09:39:52;8.60;97.00
54202;DHT22;40108;53.152;5.844;2023-03-19T09:44:55;8.70;97.00
54202;DHT22;40108;53.152;5.844;2023-03-19T09:47:33;8.70;96.90
54202;DHT22;40108;53.152;5.844;2023-03-19T09:50:23;8.70;97.00
54202;DHT22;40108;53.152;5.844;2023-03-19T09:55:47;8.70;96.90
54202;DHT22;40108;53.152;5.844;2023-03-19T09:58:43;8.70;96.80
54202;DHT22;40108;53.152;5.844;2023-03-19T10:01:29;8.70;96.80
54202;DHT22;40108;53.152;5.844;2023-03-19T10:06:33;8.80;96.70
54202;DHT22;40108;53.152;5.844;2023-03-19T10:23:25;8.90;96.50
54202;DHT22;40108;53.152;5.844;2023-03-19T10:25:55;8.90;96.50
54202;DHT22;40108;53.152;5.844;2023-03-19T10:28:22;8.90;96.50
54202;DHT22;40108;53.152;5.844;2023-03-19T10:33:49;9.00;96.40
54202;DHT22;40108;53.152;5.844;2023-03-19T10:36:19;9.00;96.40
54202;DHT22;40108;53.152;5.844;2023-03-19T10:38:46;9.10;96.40
54202;DHT22;40108;53.152;5.844;2023-03-19T10:41:18;9.00;96.30
54202;DHT22;40108;53.152;5.844;2023-03-19T10:43:51;9.10;96.30
54202;DHT22;40108;53.152;5.844;2023-03-19T10:46:17;9.10;96.30
54202;DHT22;40108;53.152;5.844;2023-03-19T10:48:45;9.10;96.30
54202;DHT22;40108;53.152;5.844;2023-03-19T10:51:14;9.10;96.30
54202;DHT22;40108;53.152;5.844;2023-03-19T10:53:41;9.10;96.30
54202;DHT22;40108;53.152;5.844;2023-03-19T10:56:20;9.20;96.30
54202;DHT22;40108;53.152;5.844;2023-03-19T10:59:12;9.10;96.20
54202;DHT22;40108;53.152;5.844;2023-03-19T11:01:45;9.10;96.10
54202;DHT22;40108;53.152;5.844;2023-03-19T11:04:20;9.10;96.10
54202;DHT22;40108;53.152;5.844;2023-03-19T11:07:10;9.10;96.10
54202;DHT22;40108;53.152;5.844;2023-03-19T11:14:42;9.10;96.10
54202;DHT22;40108;53.152;5.844;2023-03-19T11:17:20;9.10;96.00
54202;DHT22;40108;53.152;5.844;2023-03-19T11:19:53;9.20;96.10
54202;DHT22;40108;53.152;5.844;2023-03-19T11:22:29;9.20;96.00
54202;DHT22;40108;53.152;5.844;2023-03-19T11:25:01;9.20;96.00
54202;DHT22;40108;53.152;5.844;2023-03-19T11:27:34;9.20;96.00
54202;DHT22;40108;53.152;5.844;2023-03-19T11:30:02;9.20;96.00
54202;DHT22;40108;53.152;5.844;2023-03-19T11:35:25;9.30;95.90
54202;DHT22;40108;53.152;5.844;2023-03-19T11:37:57;9.40;95.90
54202;DHT22;40108;53.152;5.844;2023-03-19T11:40:31;9.40;95.90
54202;DHT22;40108;53.152;5.844;2023-03-19T11:46:42;9.50;95.80
54202;DHT22;40108;53.152;5.844;2023-03-19T12:00:17;9.50;95.60
54202;DHT22;40108;53.152;5.844;2023-03-19T12:11:27;9.60;95.60
54202;DHT22;40108;53.152;5.844;2023-03-19T12:14:30;9.60;95.60
54202;DHT22;40108;53.152;5.844;2023-03-19T12:17:16;9.70;95.50
54202;DHT22;40108;53.152;5.844;2023-03-19T12:30:33;9.80;95.40
54202;DHT22;40108;53.152;5.844;2023-03-19T12:36:15;9.80;95.40
54202;DHT22;40108;53.152;5.844;2023-03-19T12:41:25;9.80;95.40
54202;DHT22;40108;53.152;5.844;2023-03-19T12:44:21;9.80;95.30
54202;DHT22;40108;53.152;5.844;2023-03-19T12:52:21;9.90;95.20
54202;DHT22;40108;53.152;5.844;2023-03-19T12:55:19;9.90;95.20
54202;DHT22;40108;53.152;5.844;2023-03-19T12:57:53;10.00;95.20
54202;DHT22;40108;53.152;5.844;2023-03-19T13:00:31;10.10;95.20
54202;DHT22;40108;53.152;5.844;2023-03-19T13:11:17;10.20;95.00
54202;DHT22;40108;53.152;5.844;2023-03-19T13:13:54;10.20;94.80
54202;DHT22;40108;53.152;5.844;2023-03-19T13:16:42;10.30;94.80
54202;DHT22;40108;53.152;5.844;2023-03-19T13:22:05;10.40;94.60
54202;DHT22;40108;53.152;5.844;2023-03-19T13:24:36;10.50;94.40
54202;DHT22;40108;53.152;5.844;2023-03-19T13:27:06;10.40;94.30
54202;DHT22;40108;53.152;5.844;2023-03-19T13:29:36;10.50;94.30
54202;DHT22;40108;53.152;5.844;2023-03-19T13:32:08;10.50;94.20
54202;DHT22;40108;53.152;5.844;2023-03-19T13:34:49;10.60;94.10
54202;DHT22;40108;53.152;5.844;2023-03-19T13:37:19;10.60;94.00
54202;DHT22;40108;53.152;5.844;2023-03-19T13:39:46;10.60;93.90
54202;DHT22;40108;53.152;5.844;2023-03-19T13:42:35;10.50;93.90
54202;DHT22;40108;53.152;5.844;2023-03-19T13:45:30;10.60;93.80
54202;DHT22;40108;53.152;5.844;2023-03-19T13:48:23;10.60;93.80
54202;DHT22;40108;53.152;5.844;2023-03-19T13:51:23;10.60;93.80
54202;DHT22;40108;53.152;5.844;2023-03-19T13:59:36;10.60;93.40
54202;DHT22;40108;53.152;5.844;2023-03-19T14:07:49;10.60;93.20
54202;DHT22;40108;53.152;5.844;2023-03-19T14:10:25;10.60;93.10
54202;DHT22;40108;53.152;5.844;2023-03-19T14:13:02;10.50;93.00
54202;DHT22;40108;53.152;5.844;2023-03-19T14:15:29;10.50;92.80
54202;DHT22;40108;53.152;5.844;2023-03-19T14:18:01;10.50;92.90
54202;DHT22;40108;53.152;5.844;2023-03-19T14:20:32;10.50;92.90
54202;DHT22;40108;53.152;5.844;2023-03-19T14:23:10;10.50;93.00
54202;DHT22;40108;53.152;5.844;2023-03-19T14:34:01;10.50;92.90
54202;DHT22;40108;53.152;5.844;2023-03-19T14:36:29;10.40;92.80
54202;DHT22;40108;53.152;5.844;2023-03-19T14:41:35;10.40;92.90
54202;DHT22;40108;53.152;5.844;2023-03-19T14:47:35;10.40;92.80
54202;DHT22;40108;53.152;5.844;2023-03-19T14:55:49;10.30;92.70
54202;DHT22;40108;53.152;5.844;2023-03-19T14:58:17;10.20;92.80
54202;DHT22;40108;53.152;5.844;2023-03-19T15:00:48;10.20;92.80
54202;DHT22;40108;53.152;5.844;2023-03-19T15:03:29;10.10;92.90
54202;DHT22;40108;53.152;5.844;2023-03-19T15:05:58;10.00;93.00
54202;DHT22;40108;53.152;5.844;2023-03-19T15:08:25;9.90;93.10
54202;DHT22;40108;53.152;5.844;2023-03-19T15:19:09;9.80;93.50
54202;DHT22;40108;53.152;5.844;2023-03-19T15:21:36;9.70;93.60
54202;DHT22;40108;53.152;5.844;2023-03-19T15:24:02;9.70;93.60
54202;DHT22;40108;53.152;5.844;2023-03-19T15:26:35;9.70;93.70
54202;DHT22;40108;53.152;5.844;2023-03-19T15:29:02;9.70;93.70
54202;DHT22;40108;53.152;5.844;2023-03-19T15:31:48;9.70;93.80
54202;DHT22;40108;53.152;5.844;2023-03-19T15:34:25;9.70;93.90
54202;DHT22;40108;53.152;5.844;2023-03-19T15:37:11;9.70;93.90
54202;DHT22;40108;53.152;5.844;2023-03-19T15:39:46;9.70;93.90
54202;DHT22;40108;53.152;5.844;2023-03-19T15:42:15;9.70;93.90
54202;DHT22;40108;53.152;5.844;2023-03-19T15:44:45;9.60;94.00
54202;DHT22;40108;53.152;5.844;2023-03-19T15:47:19;9.60;94.00
54202;DHT22;40108;53.152;5.844;2023-03-19T15:49:57;9.70;94.00
54202;DHT22;40108;53.152;5.844;2023-03-19T15:52:25;9.60;94.10
54202;DHT22;40108;53.152;5.844;2023-03-19T15:54:53;9.60;94.10
54202;DHT22;40108;53.152;5.844;2023-03-19T15:57:21;9.70;94.10
54202;DHT22;40108;53.152;5.844;2023-03-19T15:59:51;9.70;94.20
54202;DHT22;40108;53.152;5.844;2023-03-19T16:04:49;9.70;94.00
54202;DHT22;40108;53.152;5.844;2023-03-19T16:07:41;9.70;93.90
54202;DHT22;40108;53.152;5.844;2023-03-19T16:12:52;9.60;93.90
54202;DHT22;40108;53.152;5.844;2023-03-19T16:15:40;9.60;93.90
54202;DHT22;40108;53.152;5.844;2023-03-19T16:20:42;9.60;93.90
54202;DHT22;40108;53.152;5.844;2023-03-19T16:23:14;9.50;93.90
54202;DHT22;40108;53.152;5.844;2023-03-19T16:25:42;9.50;93.90
54202;DHT22;40108;53.152;5.844;2023-03-19T16:28:19;9.50;93.80
54202;DHT22;40108;53.152;5.844;2023-03-19T16:30:50;9.50;93.90
54202;DHT22;40108;53.152;5.844;2023-03-19T16:33:16;9.40;93.90
54202;DHT22;40108;53.152;5.844;2023-03-19T16:35:44;9.30;93.80
54202;DHT22;40108;53.152;5.844;2023-03-19T16:38:16;9.30;93.80
54202;DHT22;40108;53.152;5.844;2023-03-19T16:40:47;9.20;93.90
54202;DHT22;40108;53.152;5.844;2023-03-19T16:43:22;9.20;93.90
54202;DHT22;40108;53.152;5.844;2023-03-19T16:46:12;9.20;94.00
54202;DHT22;40108;53.152;5.844;2023-03-19T16:48:37;9.10;94.10
54202;DHT22;40108;53.152;5.844;2023-03-19T16:51:04;9.10;94.10
54202;DHT22;40108;53.152;5.844;2023-03-19T16:53:33;9.00;94.20
54202;DHT22;40108;53.152;5.844;2023-03-19T16:55:59;8.90;94.30
54202;DHT22;40108;53.152;5.844;2023-03-19T16:58:32;8.90;94.30
54202;DHT22;40108;53.152;5.844;2023-03-19T17:01:01;8.90;94.40
54202;DHT22;40108;53.152;5.844;2023-03-19T17:03:27;8.80;94.30
54202;DHT22;40108;53.152;5.844;2023-03-19T17:05:55;8.80;94.40
54202;DHT22;40108;53.152;5.844;2023-03-19T17:08:21;8.70;94.50
54202;DHT22;40108;53.152;5.844;2023-03-19T17:10:52;8.70;94.50
54202;DHT22;40108;53.152;5.844;2023-03-19T17:13:24;8.70;94.60
54202;DHT22;40108;53.152;5.844;2023-03-19T17:15:54;8.70;94.60
54202;DHT22;40108;53.152;5.844;2023-03-19T17:18:23;8.60;94.70
54202;DHT22;40108;53.152;5.844;2023-03-19T17:20:54;8.60;94.70
54202;DHT22;40108;53.152;5.844;2023-03-19T17:23:21;8.60;94.70
54202;DHT22;40108;53.152;5.844;2023-03-19T17:25:51;8.60;94.70
54202;DHT22;40108;53.152;5.844;2023-03-19T17:28:17;8.50;94.80
54202;DHT22;40108;53.152;5.844;2023-03-19T17:30:43;8.40;94.80
54202;DHT22;40108;53.152;5.844;2023-03-19T17:33:27;8.40;94.90
54202;DHT22;40108;53.152;5.844;2023-03-19T17:35:54;8.40;94.80
54202;DHT22;40108;53.152;5.844;2023-03-19T17:38:21;8.40;94.90
54202;DHT22;40108;53.152;5.844;2023-03-19T17:40:47;8.30;94.90
54202;DHT22;40108;53.152;5.844;2023-03-19T17:43:13;8.20;94.90
54202;DHT22;40108;53.152;5.844;2023-03-19T17:45:43;8.20;95.00
54202;DHT22;40108;53.152;5.844;2023-03-19T17:48:23;8.10;94.90
54202;DHT22;40108;53.152;5.844;2023-03-19T17:50:49;8.10;95.00
54202;DHT22;40108;53.152;5.844;2023-03-19T17:53:16;8.10;94.90
54202;DHT22;40108;53.152;5.844;2023-03-19T17:55:45;8.00;95.00
54202;DHT22;40108;53.152;5.844;2023-03-19T17:58:16;7.90;95.00
54202;DHT22;40108;53.152;5.844;2023-03-19T18:00:43;8.00;95.00
54202;DHT22;40108;53.152;5.844;2023-03-19T18:03:15;8.00;94.90
54202;DHT22;40108;53.152;5.844;2023-03-19T18:05:42;7.90;95.00
54202;DHT22;40108;53.152;5.844;2023-03-19T18:08:12;7.90;95.00
54202;DHT22;40108;53.152;5.844;2023-03-19T18:10:40;7.90;95.00
54202;DHT22;40108;53.152;5.844;2023-03-19T18:13:06;7.90;95.00